Barbados Meteorological Services
Auto gathered TAF list
Powered by Apparatus software
For Flight AA2725
Contact Number 1-(246)-535-0021/2/3/4/5/6
WEB: http://www.barbadosweather.org

**********************************************

2017/05/28 06:06
TAF TLPL 280500Z 2806/2906 11015KT 9999 SCT025
TEMPO SHRA FEW015CB BKN018


**********************************************
2017/05/28 06:45
TAF TJSJ 280540Z 2806/2906 11005KT P6SM VCSH FEW025 SCT040
FM281300 08012KT P6SM FEW030 SCT050
FM281630 08012KT P6SM VCSH SCT025 BKN050
FM282200 10006KT P6SM VCSH SCT025 BKN040


**********************************************
2017/05/28 06:13
TAF TFFR 280500Z 2806/2906 11008KT 9999 SCT020 BKN030
TEMPO 2806/2906 3000 SHRA BKN014 SCT018TCU PROB30
TEMPO 2815/2906 12015G25KT 1000 TSRA BKN012 SCT015CB


**********************************************
2017/05/28 06:13
TAF TBPB 280500Z 2806/2906 10018KT 9999 SCT016 BKN038
TEMPO 2808/2815 SHRA FEW012CB BKN014


**********************************************
2017/05/28 00:00
TAF TAPA 272300Z 2800/2824 08008KT 9999 SCT020 PROB30
TEMPO 2800/2806 SHRA PROB40
TEMPO 2806/2812 SHRA
TEMPO 2818/2824 SHRA


**********************************************
2017/05/28 06:44
TAF MYNN 280500Z 2806/2906 00000KT 9999 SCT025
BECMG 2812/2814 18008KT 9999 FEW016CB SCT023


**********************************************
2017/05/26 12:18
TAF MTPP 261100Z 2612/2712 10008KT 7000 FEW020
TEMPO 2614/2618 09010G20KT PROB30
TEMPO 2700/2704 4500 -SHRA FEW022CB SCT040
BECMG 2708/2712 VRB02KT 9000 FEW020


**********************************************
2017/05/28 06:51
TAF MDSD 280400Z 2806/2906 02004KT 9999 FEW016CB SCT014 SCT016 SCT300
BECMG 2815/20817 12008KT


**********************************************
2017/05/28 06:24
TAF KSFB 280520Z 2806/2906 29004KT P6SM SKC
FM281400 28009KT P6SM SKC
FM290100 24006KT P6SM SKC


**********************************************
2017/05/28 09:09
TAF
AMD KPHL 280902Z 2809/2912 VRB03KT P6SM SCT006 BKN050
TEMPO 2809/2812 3SM BR BKN006
FM281300 13006KT P6SM SCT050
FM281700 15008KT P6SM BKN050
FM282300 11008KT P6SM SCT015 BKN050
TEMPO 2901/2903 BKN015 OVC050
FM290300 09008KT P6SM -SHRA OVC008
FM290700 10006KT 3SM -RA BR OVC004


**********************************************
2017/05/28 09:54
TAF
AMD KPBI 280853Z 2809/2906 21005KT P6SM SCT100
FM281000 00000KT P6SM FEW020
FM281400 23008KT P6SM SCT040
FM281900 15008KT P6SM SCT050
FM290000 17003KT P6SM SKC


**********************************************
2017/05/28 09:54
TAF
AMD KOPF 280853Z 2809/2906 28004KT P6SM FEW150
FM281900 17010KT P6SM SCT040
FM290000 19004KT P6SM SKC


**********************************************
2017/05/28 09:54
TAF
AMD KMIA 280853Z 2809/2906 28003KT P6SM FEW200
FM281800 14010KT P6SM SCT040
FM290000 17005KT P6SM SKC


**********************************************
2017/05/28 09:59
TAF
AMD KMCO 280859Z 2809/2906 28004KT P6SM FEW012
FM281400 28009KT P6SM SKC
FM290100 24005KT P6SM SKC


**********************************************
2017/05/28 09:40
TAF
AMD KJFK 280833Z 2809/2912 09004KT P6SM BKN006
FM281300 14007KT P6SM SCT010 SCT070
TEMPO 2813/2814 BKN009
FM281700 15012KT P6SM SCT015 BKN200
FM290200 12009KT P6SM BKN045
FM290500 11009KT P6SM VCSH BKN030
FM290700 11010KT P6SM VCSH BKN020
FM290900 10011G17KT 5SM -RA OVC015


**********************************************
2017/05/28 09:54
TAF
AMD KJAX 280852Z 2809/2906 24003KT 5SM BR BKN002
FM281400 26008KT P6SM FEW250
FM290000 21007KT P6SM FEW250


**********************************************
2017/05/28 09:54
TAF
AMD KFLL 280853Z 2809/2906 31003KT P6SM FEW050 FEW200
FM281700 13011KT P6SM SCT040
FM290000 16006KT P6SM SKC


**********************************************
2017/05/28 09:45
TAF
AMD KEWR 280842Z 2809/2912 12004KT P6SM FEW070
FM281400 14006KT P6SM SCT070
FM281700 15009KT P6SM FEW070 BKN200
FM290000 12006KT P6SM SCT015 BKN100
FM290400 10006KT P6SM VCSH BKN030
FM290600 09008KT P6SM VCSH OVC015
FM290800 08009KT 4SM -RA OVC015


**********************************************
2017/05/28 09:59
TAF
AMD KCLT 280859Z 2809/2906 34004KT P6SM SCT090 OVC250
FM281500 24008KT P6SM SCT060 BKN100 PROB30 2818/2822 4SM -TSRA OVC040CB
FM282200 25008KT P6SM BKN050 PROB30 2822/2901 4SM -TSRA OVC025CB
FM290200 23004KT P6SM BKN250


**********************************************
2017/05/28 08:28
TAF
AMD KATL 280826Z 2808/2912 21005KT P6SM SCT025 BKN100
FM281000 22006KT P6SM -SHRA BKN035
TEMPO 2810/2812 VRB10G25KT 4SM -TSRA BR BKN025CB
FM281200 25008KT P6SM BKN025
FM281500 25010G18KT P6SM BKN035
FM282000 25010G20KT P6SM BKN050
FM290100 25007KT P6SM BKN100
FM290800 25007KT P6SM BKN070 PROB30 2908/2912 4SM -TSRA BR BKN025CB


**********************************************